sensor_id;sensor_type;location;lat;lon;timestamp;pressure;altitude;pressure_sealevel;temperature;humidity
58295;BME280;45705;55.592;37.460;2023-02-02T00:02:04;98080.69;;;-1.37;100.00
58295;BME280;45705;55.592;37.460;2023-02-02T00:04:32;98076.16;;;-1.37;100.00
58295;BME280;45705;55.592;37.460;2023-02-02T00:07:00;98088.66;;;-1.43;100.00
58295;BME280;45705;55.592;37.460;2023-02-02T00:09:28;98090.34;;;-1.64;100.00
58295;BME280;45705;55.592;37.460;2023-02-02T00:11:55;98092.69;;;-1.72;100.00
58295;BME280;45705;55.592;37.460;2023-02-02T00:14:20;98087.91;;;-1.70;100.00
58295;BME280;45705;55.592;37.460;2023-02-02T00:16:48;98077.88;;;-1.58;100.00
58295;BME280;45705;55.592;37.460;2023-02-02T00:19:22;98078.81;;;-1.37;100.00
58295;BME280;45705;55.592;37.460;2023-02-02T00:21:51;98088.97;;;-1.34;100.00
58295;BME280;45705;55.592;37.460;2023-02-02T00:24:17;98091.09;;;-1.36;100.00
58295;BME280;45705;55.592;37.460;2023-02-02T00:26:46;98083.72;;;-1.61;100.00
58295;BME280;45705;55.592;37.460;2023-02-02T00:29:17;98081.81;;;-1.66;100.00
58295;BME280;45705;55.592;37.460;2023-02-02T00:31:43;98083.94;;;-1.68;100.00
58295;BME280;45705;55.592;37.460;2023-02-02T00:34:10;98077.66;;;-1.51;100.00
58295;BME280;45705;55.592;37.460;2023-02-02T00:36:36;98074.97;;;-1.56;100.00
58295;BME280;45705;55.592;37.460;2023-02-02T00:39:02;98076.06;;;-1.52;100.00
58295;BME280;45705;55.592;37.460;2023-02-02T00:41:28;98078.97;;;-1.54;100.00
58295;BME280;45705;55.592;37.460;2023-02-02T00:43:54;98079.81;;;-1.81;100.00
58295;BME280;45705;55.592;37.460;2023-02-02T00:46:39;98069.03;;;-1.64;100.00
58295;BME280;45705;55.592;37.460;2023-02-02T00:49:05;98074.81;;;-1.40;100.00
58295;BME280;45705;55.592;37.460;2023-02-02T00:51:31;98074.53;;;-1.38;100.00
58295;BME280;45705;55.592;37.460;2023-02-02T00:53:57;98071.81;;;-1.48;100.00
58295;BME280;45705;55.592;37.460;2023-02-02T00:56:22;98082.84;;;-1.34;100.00
58295;BME280;45705;55.592;37.460;2023-02-02T00:58:48;98078.53;;;-1.41;100.00
58295;BME280;45705;55.592;37.460;2023-02-02T01:01:15;98077.66;;;-1.51;100.00
58295;BME280;45705;55.592;37.460;2023-02-02T01:03:42;98077.28;;;-1.65;100.00
58295;BME280;45705;55.592;37.460;2023-02-02T01:06:08;98073.34;;;-1.58;100.00
58295;BME280;45705;55.592;37.460;2023-02-02T01:08:34;98074.22;;;-1.47;100.00
58295;BME280;45705;55.592;37.460;2023-02-02T01:10:59;98068.38;;;-1.81;100.00
58295;BME280;45705;55.592;37.460;2023-02-02T01:13:25;98070.72;;;-1.90;100.00
58295;BME280;45705;55.592;37.460;2023-02-02T01:15:55;98070.91;;;-1.96;100.00
58295;BME280;45705;55.592;37.460;2023-02-02T01:18:21;98077.94;;;-1.85;100.00
58295;BME280;45705;55.592;37.460;2023-02-02T01:20:47;98077.44;;;-1.82;100.00
58295;BME280;45705;55.592;37.460;2023-02-02T01:23:13;98077.63;;;-1.56;100.00
58295;BME280;45705;55.592;37.460;2023-02-02T01:25:38;98073.44;;;-1.80;100.00
58295;BME280;45705;55.592;37.460;2023-02-02T01:28:04;98069.75;;;-1.73;100.00
58295;BME280;45705;55.592;37.460;2023-02-02T01:30:30;98067.28;;;-1.85;100.00
58295;BME280;45705;55.592;37.460;2023-02-02T01:32:56;98067.56;;;-1.82;100.00
58295;BME280;45705;55.592;37.460;2023-02-02T01:35:21;98063.94;;;-2.03;100.00
58295;BME280;45705;55.592;37.460;2023-02-02T01:37:47;98065.94;;;-1.88;100.00
58295;BME280;45705;55.592;37.460;2023-02-02T01:40:13;98067.19;;;-1.95;100.00
58295;BME280;45705;55.592;37.460;2023-02-02T01:42:39;98064.63;;;-1.85;100.00
58295;BME280;45705;55.592;37.460;2023-02-02T01:45:24;98063.13;;;-1.71;100.00
58295;BME280;45705;55.592;37.460;2023-02-02T01:47:57;98072.97;;;-1.71;100.00
58295;BME280;45705;55.592;37.460;2023-02-02T01:50:28;98063.66;;;-1.69;100.00
58295;BME280;45705;55.592;37.460;2023-02-02T01:52:57;98068.28;;;-1.91;100.00
58295;BME280;45705;55.592;37.460;2023-02-02T01:55:27;98066.84;;;-1.72;100.00
58295;BME280;45705;55.592;37.460;2023-02-02T01:57:56;98068.59;;;-1.88;100.00
58295;BME280;45705;55.592;37.460;2023-02-02T02:00:23;98060.72;;;-1.72;100.00
58295;BME280;45705;55.592;37.460;2023-02-02T02:02:56;98057.22;;;-1.73;100.00
58295;BME280;45705;55.592;37.460;2023-02-02T02:05:27;98061.53;;;-1.72;100.00
58295;BME280;45705;55.592;37.460;2023-02-02T02:07:59;98061.00;;;-1.69;100.00
58295;BME280;45705;55.592;37.460;2023-02-02T02:10:27;98060.94;;;-1.79;100.00
58295;BME280;45705;55.592;37.460;2023-02-02T02:12:53;98061.94;;;-1.85;100.00
58295;BME280;45705;55.592;37.460;2023-02-02T02:15:19;98059.84;;;-1.83;100.00
58295;BME280;45705;55.592;37.460;2023-02-02T02:18:34;98065.75;;;-1.76;100.00
58295;BME280;45705;55.592;37.460;2023-02-02T02:32:55;98064.56;;;-1.90;100.00
58295;BME280;45705;55.592;37.460;2023-02-02T02:35:39;98060.00;;;-1.63;100.00
58295;BME280;45705;55.592;37.460;2023-02-02T02:40:50;98065.63;;;-1.91;100.00
58295;BME280;45705;55.592;37.460;2023-02-02T02:43:31;98072.59;;;-1.85;100.00
58295;BME280;45705;55.592;37.460;2023-02-02T02:46:01;98062.13;;;-1.65;100.00
58295;BME280;45705;55.592;37.460;2023-02-02T02:48:28;98060.19;;;-1.69;100.00
58295;BME280;45705;55.592;37.460;2023-02-02T02:51:07;98069.44;;;-1.82;100.00
58295;BME280;45705;55.592;37.460;2023-02-02T02:53:35;98064.56;;;-1.90;100.00
58295;BME280;45705;55.592;37.460;2023-02-02T02:56:21;98077.28;;;-1.65;100.00
58295;BME280;45705;55.592;37.460;2023-02-02T02:58:51;98074.78;;;-1.45;100.00
58295;BME280;45705;55.592;37.460;2023-02-02T03:06:37;98074.41;;;-1.91;100.00
58295;BME280;45705;55.592;37.460;2023-02-02T03:09:09;98077.38;;;-1.87;100.00
58295;BME280;45705;55.592;37.460;2023-02-02T03:11:36;98067.78;;;-1.88;100.00
58295;BME280;45705;55.592;37.460;2023-02-02T03:14:03;98065.38;;;-1.90;100.00
58295;BME280;45705;55.592;37.460;2023-02-02T03:16:29;98069.47;;;-1.77;100.00
58295;BME280;45705;55.592;37.460;2023-02-02T03:18:55;98066.72;;;-1.87;100.00
58295;BME280;45705;55.592;37.460;2023-02-02T03:21:21;98081.56;;;-1.96;100.00
58295;BME280;45705;55.592;37.460;2023-02-02T03:23:47;98070.00;;;-1.80;100.00
58295;BME280;45705;55.592;37.460;2023-02-02T03:26:13;98079.50;;;-1.89;100.00
58295;BME280;45705;55.592;37.460;2023-02-02T03:28:39;98082.66;;;-1.92;100.00
58295;BME280;45705;55.592;37.460;2023-02-02T03:31:06;98081.00;;;-1.99;100.00
58295;BME280;45705;55.592;37.460;2023-02-02T03:33:32;98082.97;;;-1.89;100.00
58295;BME280;45705;55.592;37.460;2023-02-02T03:35:59;98093.31;;;-1.92;100.00
58295;BME280;45705;55.592;37.460;2023-02-02T03:38:25;98084.75;;;-2.00;100.00
58295;BME280;45705;55.592;37.460;2023-02-02T03:40:51;98090.63;;;-1.98;100.00
58295;BME280;45705;55.592;37.460;2023-02-02T03:43:20;98084.19;;;-1.69;100.00
58295;BME280;45705;55.592;37.460;2023-02-02T03:45:47;98089.59;;;-1.91;100.00
58295;BME280;45705;55.592;37.460;2023-02-02T03:48:12;98090.56;;;-2.03;100.00
58295;BME280;45705;55.592;37.460;2023-02-02T03:50:38;98088.84;;;-2.14;100.00
58295;BME280;45705;55.592;37.460;2023-02-02T03:53:04;98088.91;;;-2.09;100.00
58295;BME280;45705;55.592;37.460;2023-02-02T03:55:30;98091.22;;;-2.18;100.00
58295;BME280;45705;55.592;37.460;2023-02-02T03:57:55;98085.22;;;-1.75;100.00
58295;BME280;45705;55.592;37.460;2023-02-02T04:00:21;98090.78;;;-1.77;100.00
58295;BME280;45705;55.592;37.460;2023-02-02T04:02:47;98098.16;;;-1.89;100.00
58295;BME280;45705;55.592;37.460;2023-02-02T04:05:13;98092.50;;;-1.93;100.00
58295;BME280;45705;55.592;37.460;2023-02-02T04:07:38;98103.97;;;-1.92;100.00
58295;BME280;45705;55.592;37.460;2023-02-02T04:10:04;98095.88;;;-2.03;100.00
58295;BME280;45705;55.592;37.460;2023-02-02T04:12:30;98088.88;;;-1.82;100.00
58295;BME280;45705;55.592;37.460;2023-02-02T04:14:56;98095.66;;;-2.01;100.00
58295;BME280;45705;55.592;37.460;2023-02-02T04:17:21;98094.94;;;-1.91;100.00
58295;BME280;45705;55.592;37.460;2023-02-02T04:19:47;98091.75;;;-1.88;100.00
58295;BME280;45705;55.592;37.460;2023-02-02T04:22:13;98090.72;;;-1.87;100.00
58295;BME280;45705;55.592;37.460;2023-02-02T04:24:38;98089.69;;;-1.81;100.00
58295;BME280;45705;55.592;37.460;2023-02-02T04:27:04;98096.94;;;-2.04;100.00
58295;BME280;45705;55.592;37.460;2023-02-02T04:29:30;98079.91;;;-2.03;100.00
58295;BME280;45705;55.592;37.460;2023-02-02T04:31:56;98091.88;;;-2.05;100.00
58295;BME280;45705;55.592;37.460;2023-02-02T04:34:22;98102.00;;;-2.02;100.00
58295;BME280;45705;55.592;37.460;2023-02-02T04:36:47;98101.66;;;-1.84;100.00
58295;BME280;45705;55.592;37.460;2023-02-02T04:39:13;98104.97;;;-1.99;100.00
58295;BME280;45705;55.592;37.460;2023-02-02T04:41:39;98105.53;;;-1.96;100.00
58295;BME280;45705;55.592;37.460;2023-02-02T04:44:13;98104.56;;;-1.85;100.00
58295;BME280;45705;55.592;37.460;2023-02-02T04:46:40;98099.84;;;-1.78;100.00
58295;BME280;45705;55.592;37.460;2023-02-02T04:49:10;98104.88;;;-1.82;100.00
58295;BME280;45705;55.592;37.460;2023-02-02T04:51:37;98110.91;;;-1.91;100.00
58295;BME280;45705;55.592;37.460;2023-02-02T04:54:03;98115.44;;;-1.92;100.00
58295;BME280;45705;55.592;37.460;2023-02-02T04:56:29;98109.59;;;-1.89;100.00
58295;BME280;45705;55.592;37.460;2023-02-02T04:58:55;98100.66;;;-2.05;100.00
58295;BME280;45705;55.592;37.460;2023-02-02T05:01:21;98106.53;;;-2.03;100.00
58295;BME280;45705;55.592;37.460;2023-02-02T05:03:48;98103.72;;;-1.91;100.00
58295;BME280;45705;55.592;37.460;2023-02-02T05:06:15;98113.59;;;-1.86;100.00
58295;BME280;45705;55.592;37.460;2023-02-02T05:08:41;98106.06;;;-2.00;100.00
58295;BME280;45705;55.592;37.460;2023-02-02T05:11:12;98110.91;;;-1.91;100.00
58295;BME280;45705;55.592;37.460;2023-02-02T05:13:38;98115.63;;;-1.99;100.00
58295;BME280;45705;55.592;37.460;2023-02-02T05:16:05;98113.75;;;-2.03;100.00
58295;BME280;45705;55.592;37.460;2023-02-02T05:18:31;98119.88;;;-2.03;100.00
58295;BME280;45705;55.592;37.460;2023-02-02T05:21:01;98117.53;;;-1.94;100.00
58295;BME280;45705;55.592;37.460;2023-02-02T05:25:55;98121.75;;;-1.71;100.00
58295;BME280;45705;55.592;37.460;2023-02-02T05:28:22;98114.41;;;-1.59;100.00
58295;BME280;45705;55.592;37.460;2023-02-02T05:30:48;98119.53;;;-1.79;100.00
58295;BME280;45705;55.592;37.460;2023-02-02T05:33:15;98127.06;;;-1.71;100.00
58295;BME280;45705;55.592;37.460;2023-02-02T05:35:47;98121.66;;;-1.81;100.00
58295;BME280;45705;55.592;37.460;2023-02-02T05:38:14;98125.41;;;-1.82;100.00
58295;BME280;45705;55.592;37.460;2023-02-02T05:40:40;98117.00;;;-1.64;100.00
58295;BME280;45705;55.592;37.460;2023-02-02T05:43:05;98119.91;;;-1.65;100.00
58295;BME280;45705;55.592;37.460;2023-02-02T05:45:31;98124.94;;;-1.74;100.00
58295;BME280;45705;55.592;37.460;2023-02-02T05:47:57;98124.63;;;-1.77;100.00
58295;BME280;45705;55.592;37.460;2023-02-02T05:50:23;98122.28;;;-1.69;100.00
58295;BME280;45705;55.592;37.460;2023-02-02T05:53:00;98119.03;;;-1.76;100.00
58295;BME280;45705;55.592;37.460;2023-02-02T05:55:26;98122.22;;;-1.79;100.00
58295;BME280;45705;55.592;37.460;2023-02-02T05:57:53;98128.75;;;-1.65;100.00
58295;BME280;45705;55.592;37.460;2023-02-02T06:00:19;98110.09;;;-1.65;100.00
58295;BME280;45705;55.592;37.460;2023-02-02T06:02:44;98137.28;;;-1.63;100.00
58295;BME280;45705;55.592;37.460;2023-02-02T06:05:10;98136.13;;;-1.72;100.00
58295;BME280;45705;55.592;37.460;2023-02-02T06:07:36;98136.28;;;-1.51;100.00
58295;BME280;45705;55.592;37.460;2023-02-02T06:10:02;98139.91;;;-1.68;100.00
58295;BME280;45705;55.592;37.460;2023-02-02T06:12:29;98145.16;;;-1.73;100.00
58295;BME280;45705;55.592;37.460;2023-02-02T06:14:54;98144.75;;;-1.60;100.00
58295;BME280;45705;55.592;37.460;2023-02-02T06:17:20;98145.16;;;-1.73;100.00
58295;BME280;45705;55.592;37.460;2023-02-02T06:19:46;98142.06;;;-1.65;100.00
58295;BME280;45705;55.592;37.460;2023-02-02T06:22:12;98136.38;;;-1.41;100.00
58295;BME280;45705;55.592;37.460;2023-02-02T06:24:37;98136.88;;;-1.44;100.00
58295;BME280;45705;55.592;37.460;2023-02-02T06:27:04;98151.56;;;-1.42;100.00
58295;BME280;45705;55.592;37.460;2023-02-02T06:29:29;98143.31;;;-1.40;100.00
58295;BME280;45705;55.592;37.460;2023-02-02T06:31:55;98123.75;;;-1.56;100.00
58295;BME280;45705;55.592;37.460;2023-02-02T06:34:21;98141.25;;;-1.65;100.00
58295;BME280;45705;55.592;37.460;2023-02-02T06:36:47;98146.38;;;-1.59;100.00
58295;BME280;45705;55.592;37.460;2023-02-02T06:39:13;98145.47;;;-1.37;100.00
58295;BME280;45705;55.592;37.460;2023-02-02T06:41:38;98161.00;;;-1.29;100.00
58295;BME280;45705;55.592;37.460;2023-02-02T06:44:04;98146.50;;;-1.43;100.00
58295;BME280;45705;55.592;37.460;2023-02-02T06:46:30;98150.63;;;-1.63;100.00
58295;BME280;45705;55.592;37.460;2023-02-02T06:48:56;98134.28;;;-1.34;100.00
58295;BME280;45705;55.592;37.460;2023-02-02T06:51:22;98143.75;;;-1.53;100.00
58295;BME280;45705;55.592;37.460;2023-02-02T06:53:48;98151.50;;;-1.52;100.00
58295;BME280;45705;55.592;37.460;2023-02-02T06:56:14;98152.34;;;-1.46;100.00
58295;BME280;45705;55.592;37.460;2023-02-02T06:58:40;98157.66;;;-1.46;100.00
58295;BME280;45705;55.592;37.460;2023-02-02T07:01:18;98142.50;;;-1.73;100.00
58295;BME280;45705;55.592;37.460;2023-02-02T07:03:47;98161.16;;;-1.73;100.00
58295;BME280;45705;55.592;37.460;2023-02-02T07:06:14;98156.38;;;-1.71;100.00
58295;BME280;45705;55.592;37.460;2023-02-02T07:08:40;98166.13;;;-1.54;100.00
58295;BME280;45705;55.592;37.460;2023-02-02T07:11:06;98167.16;;;-1.61;100.00
58295;BME280;45705;55.592;37.460;2023-02-02T07:13:32;98176.31;;;-1.46;100.00
58295;BME280;45705;55.592;37.460;2023-02-02T07:15:58;98167.34;;;-1.35;100.00
58295;BME280;45705;55.592;37.460;2023-02-02T07:18:24;98168.56;;;-1.48;100.00
58295;BME280;45705;55.592;37.460;2023-02-02T07:20:50;98134.88;;;-1.64;100.00
58295;BME280;45705;55.592;37.460;2023-02-02T07:23:15;98169.34;;;-1.20;100.00
58295;BME280;45705;55.592;37.460;2023-02-02T07:25:41;98170.88;;;-1.29;100.00
58295;BME280;45705;55.592;37.460;2023-02-02T07:28:07;98176.31;;;-1.46;100.00
58295;BME280;45705;55.592;37.460;2023-02-02T07:30:33;98182.03;;;-1.32;100.00
58295;BME280;45705;55.592;37.460;2023-02-02T07:32:59;98170.44;;;-1.16;100.00
58295;BME280;45705;55.592;37.460;2023-02-02T07:35:26;98170.44;;;-1.16;100.00
58295;BME280;45705;55.592;37.460;2023-02-02T07:37:52;98161.56;;;-1.27;100.00
58295;BME280;45705;55.592;37.460;2023-02-02T07:40:19;98170.81;;;-0.97;100.00
58295;BME280;45705;55.592;37.460;2023-02-02T07:42:48;98177.78;;;-1.33;100.00
58295;BME280;45705;55.592;37.460;2023-02-02T07:45:14;98177.72;;;-1.06;100.00
58295;BME280;45705;55.592;37.460;2023-02-02T07:47:40;98173.84;;;-1.21;100.00
58295;BME280;45705;55.592;37.460;2023-02-02T07:50:06;98159.78;;;-1.16;100.00
58295;BME280;45705;55.592;37.460;2023-02-02T07:52:32;98173.25;;;-1.33;100.00
58295;BME280;45705;55.592;37.460;2023-02-02T07:54:58;98162.69;;;-1.17;100.00
58295;BME280;45705;55.592;37.460;2023-02-02T07:57:57;98160.81;;;-1.22;100.00
58295;BME280;45705;55.592;37.460;2023-02-02T08:00:24;98168.47;;;-1.31;100.00
58295;BME280;45705;55.592;37.460;2023-02-02T08:02:50;98168.88;;;-1.12;100.00
58295;BME280;45705;55.592;37.460;2023-02-02T08:05:15;98176.06;;;-1.12;100.00
58295;BME280;45705;55.592;37.460;2023-02-02T08:07:41;98180.28;;;-1.16;100.00
58295;BME280;45705;55.592;37.460;2023-02-02T08:10:09;98179.78;;;-1.13;100.00
58295;BME280;45705;55.592;37.460;2023-02-02T08:12:35;98182.69;;;-0.77;100.00
58295;BME280;45705;55.592;37.460;2023-02-02T08:15:01;98186.25;;;-1.04;100.00
58295;BME280;45705;55.592;37.460;2023-02-02T08:17:27;98169.63;;;-1.16;100.00
58295;BME280;45705;55.592;37.460;2023-02-02T08:19:52;98186.81;;;-0.97;100.00
58295;BME280;45705;55.592;37.460;2023-02-02T08:22:18;98177.66;;;-1.11;100.00
58295;BME280;45705;55.592;37.460;2023-02-02T08:24:44;98181.91;;;-1.15;100.00
58295;BME280;45705;55.592;37.460;2023-02-02T08:27:09;98173.56;;;-0.82;100.00
58295;BME280;45705;55.592;37.460;2023-02-02T08:29:36;98177.78;;;-0.96;100.00
58295;BME280;45705;55.592;37.460;2023-02-02T08:32:03;98175.44;;;-1.25;100.00
58295;BME280;45705;55.592;37.460;2023-02-02T08:34:29;98176.56;;;-1.15;100.00
58295;BME280;45705;55.592;37.460;2023-02-02T08:36:55;98170.28;;;-0.99;100.00
58295;BME280;45705;55.592;37.460;2023-02-02T08:39:21;98166.25;;;-1.02;100.00
58295;BME280;45705;55.592;37.460;2023-02-02T08:41:47;98161.84;;;-0.81;100.00
58295;BME280;45705;55.592;37.460;2023-02-02T08:44:14;98169.91;;;-0.70;99.40
58295;BME280;45705;55.592;37.460;2023-02-02T08:46:41;98170.78;;;-0.54;98.57
58295;BME280;45705;55.592;37.460;2023-02-02T08:49:11;98162.34;;;-0.84;97.15
58295;BME280;45705;55.592;37.460;2023-02-02T08:51:37;98167.59;;;-1.04;98.08
58295;BME280;45705;55.592;37.460;2023-02-02T08:54:03;98168.25;;;-0.82;98.52
58295;BME280;45705;55.592;37.460;2023-02-02T08:56:29;98162.75;;;-1.07;97.98
58295;BME280;45705;55.592;37.460;2023-02-02T08:58:56;98172.63;;;-1.08;98.23
58295;BME280;45705;55.592;37.460;2023-02-02T09:01:31;98173.56;;;-0.87;98.01
58295;BME280;45705;55.592;37.460;2023-02-02T09:03:59;98176.78;;;-0.85;96.50
58295;BME280;45705;55.592;37.460;2023-02-02T09:06:39;98167.13;;;-0.91;95.63
58295;BME280;45705;55.592;37.460;2023-02-02T09:09:09;98178.44;;;-0.73;95.79
58295;BME280;45705;55.592;37.460;2023-02-02T09:11:35;98155.59;;;-0.54;94.70
58295;BME280;45705;55.592;37.460;2023-02-02T09:14:01;98164.47;;;-0.38;92.93
58295;BME280;45705;55.592;37.460;2023-02-02T09:16:28;98153.19;;;-0.55;93.34
58295;BME280;45705;55.592;37.460;2023-02-02T09:18:55;98164.69;;;-0.45;93.26
58295;BME280;45705;55.592;37.460;2023-02-02T09:21:21;98162.31;;;-0.46;93.77
58295;BME280;45705;55.592;37.460;2023-02-02T09:23:49;98158.19;;;0.04;91.73
58295;BME280;45705;55.592;37.460;2023-02-02T09:28:44;98166.97;;;-0.01;89.46
58295;BME280;45705;55.592;37.460;2023-02-02T09:31:10;98165.13;;;0.00;89.11
58295;BME280;45705;55.592;37.460;2023-02-02T09:33:36;98172.91;;;0.17;88.54
58295;BME280;45705;55.592;37.460;2023-02-02T09:36:05;98166.50;;;0.23;88.34
58295;BME280;45705;55.592;37.460;2023-02-02T09:38:31;98163.28;;;0.16;87.75
58295;BME280;45705;55.592;37.460;2023-02-02T09:40:59;98164.75;;;-0.34;90.50
58295;BME280;45705;55.592;37.460;2023-02-02T09:48:56;98168.09;;;-0.60;93.42
58295;BME280;45705;55.592;37.460;2023-02-02T09:51:29;98160.94;;;-0.54;93.79
58295;BME280;45705;55.592;37.460;2023-02-02T09:54:21;98167.78;;;-0.73;94.50
58295;BME280;45705;55.592;37.460;2023-02-02T09:56:50;98156.47;;;-0.86;95.91
58295;BME280;45705;55.592;37.460;2023-02-02T09:59:27;98156.72;;;-0.40;93.94
58295;BME280;45705;55.592;37.460;2023-02-02T10:01:57;98158.00;;;-0.52;94.82
58295;BME280;45705;55.592;37.460;2023-02-02T10:04:48;98147.66;;;-0.33;93.54
58295;BME280;45705;55.592;37.460;2023-02-02T10:07:18;98149.00;;;-0.31;93.05
58295;BME280;45705;55.592;37.460;2023-02-02T10:14:59;98150.41;;;-0.03;91.36
58295;BME280;45705;55.592;37.460;2023-02-02T10:22:47;98137.97;;;-0.45;92.97
58295;BME280;45705;55.592;37.460;2023-02-02T10:25:14;98141.22;;;-0.43;92.53
58295;BME280;45705;55.592;37.460;2023-02-02T10:27:46;98141.81;;;-0.20;91.58
58295;BME280;45705;55.592;37.460;2023-02-02T10:30:18;98138.66;;;0.04;91.41
58295;BME280;45705;55.592;37.460;2023-02-02T10:32:56;98135.47;;;0.02;89.11
58295;BME280;45705;55.592;37.460;2023-02-02T10:41:25;98138.38;;;-0.10;89.69
58295;BME280;45705;55.592;37.460;2023-02-02T10:44:30;98133.81;;;-0.15;89.71
58295;BME280;45705;55.592;37.460;2023-02-02T10:46:59;98129.63;;;0.10;88.76
58295;BME280;45705;55.592;37.460;2023-02-02T10:49:32;98120.25;;;0.23;88.43
58295;BME280;45705;55.592;37.460;2023-02-02T10:54:43;98123.69;;;-0.08;88.99
58295;BME280;45705;55.592;37.460;2023-02-02T10:57:15;98104.75;;;0.14;88.44
58295;BME280;45705;55.592;37.460;2023-02-02T11:00:04;98115.69;;;-0.03;87.51
58295;BME280;45705;55.592;37.460;2023-02-02T11:02:31;98119.69;;;-0.15;88.97
58295;BME280;45705;55.592;37.460;2023-02-02T11:04:57;98129.59;;;-0.06;88.82
58295;BME280;45705;55.592;37.460;2023-02-02T11:07:42;98120.47;;;-0.05;88.74
58295;BME280;45705;55.592;37.460;2023-02-02T11:10:08;98106.59;;;0.04;88.22
58295;BME280;45705;55.592;37.460;2023-02-02T11:12:36;98130.13;;;0.07;87.59
58295;BME280;45705;55.592;37.460;2023-02-02T11:15:08;98127.41;;;-0.14;87.26
58295;BME280;45705;55.592;37.460;2023-02-02T11:17:47;98125.78;;;-0.25;89.40
58295;BME280;45705;55.592;37.460;2023-02-02T11:20:32;98131.44;;;-0.11;88.70
58295;BME280;45705;55.592;37.460;2023-02-02T11:23:03;98125.81;;;-0.15;88.98
58295;BME280;45705;55.592;37.460;2023-02-02T11:25:36;98123.13;;;-0.20;91.00
58295;BME280;45705;55.592;37.460;2023-02-02T11:28:19;98131.16;;;-0.15;90.79
58295;BME280;45705;55.592;37.460;2023-02-02T11:30:47;98124.72;;;-0.14;91.36
58295;BME280;45705;55.592;37.460;2023-02-02T11:33:26;98135.47;;;0.02;90.60
58295;BME280;45705;55.592;37.460;2023-02-02T11:35:58;98134.91;;;-0.11;90.56
58295;BME280;45705;55.592;37.460;2023-02-02T11:38:25;98140.28;;;0.15;89.91
58295;BME280;45705;55.592;37.460;2023-02-02T11:41:05;98143.75;;;0.05;89.66
58295;BME280;45705;55.592;37.460;2023-02-02T11:43:38;98139.75;;;0.08;88.94
58295;BME280;45705;55.592;37.460;2023-02-02T11:48:50;98133.56;;;-0.13;88.14
58295;BME280;45705;55.592;37.460;2023-02-02T11:51:22;98134.84;;;-0.26;89.85
58295;BME280;45705;55.592;37.460;2023-02-02T11:54:44;98135.50;;;0.12;88.15
58295;BME280;45705;55.592;37.460;2023-02-02T11:56:50;98142.91;;;-0.16;87.60
58295;BME280;45705;55.592;37.460;2023-02-02T11:59:41;98137.63;;;0.10;87.01
58295;BME280;45705;55.592;37.460;2023-02-02T12:02:27;98139.69;;;-0.18;87.73
58295;BME280;45705;55.592;37.460;2023-02-02T12:05:11;98152.81;;;-0.11;88.07
58295;BME280;45705;55.592;37.460;2023-02-02T12:07:39;98141.28;;;-0.22;89.66
58295;BME280;45705;55.592;37.460;2023-02-02T12:10:24;98159.50;;;-0.04;88.99
58295;BME280;45705;55.592;37.460;2023-02-02T12:24:59;98155.75;;;-0.13;89.79
58295;BME280;45705;55.592;37.460;2023-02-02T12:32:44;98152.53;;;-0.05;90.19
58295;BME280;45705;55.592;37.460;2023-02-02T12:47:17;98163.72;;;-0.18;91.78
58295;BME280;45705;55.592;37.460;2023-02-02T12:52:54;98175.94;;;-0.37;94.27
58295;BME280;45705;55.592;37.460;2023-02-02T12:55:41;98162.63;;;-0.27;94.15
58295;BME280;45705;55.592;37.460;2023-02-02T12:58:32;98182.34;;;-0.44;95.69
58295;BME280;45705;55.592;37.460;2023-02-02T13:01:13;98186.00;;;-0.55;97.57
58295;BME280;45705;55.592;37.460;2023-02-02T13:04:01;98176.34;;;-0.66;99.87
58295;BME280;45705;55.592;37.460;2023-02-02T13:09:32;98174.41;;;-0.18;99.27
58295;BME280;45705;55.592;37.460;2023-02-02T13:12:07;98172.72;;;-0.40;100.00
58295;BME280;45705;55.592;37.460;2023-02-02T13:14:36;98170.13;;;-0.24;98.17
58295;BME280;45705;55.592;37.460;2023-02-02T13:17:11;98183.94;;;-0.37;100.00
58295;BME280;45705;55.592;37.460;2023-02-02T13:19:46;98177.28;;;-0.40;100.00
58295;BME280;45705;55.592;37.460;2023-02-02T13:22:21;98182.78;;;-0.57;98.58
58295;BME280;45705;55.592;37.460;2023-02-02T13:24:49;98174.69;;;-0.72;99.27
58295;BME280;45705;55.592;37.460;2023-02-02T13:27:19;98164.03;;;-0.72;98.93
58295;BME280;45705;55.592;37.460;2023-02-02T13:29:52;98169.22;;;-0.50;98.41
58295;BME280;45705;55.592;37.460;2023-02-02T13:32:37;98163.34;;;-0.47;97.72
58295;BME280;45705;55.592;37.460;2023-02-02T13:35:19;98165.50;;;-0.44;97.34
58295;BME280;45705;55.592;37.460;2023-02-02T13:37:53;98171.69;;;-0.33;97.66
58295;BME280;45705;55.592;37.460;2023-02-02T13:40:42;98171.66;;;-0.44;97.39
58295;BME280;45705;55.592;37.460;2023-02-02T13:45:35;98181.28;;;-0.37;98.08
58295;BME280;45705;55.592;37.460;2023-02-02T13:48:16;98173.25;;;-0.48;98.55
58295;BME280;45705;55.592;37.460;2023-02-02T13:59:24;98191.34;;;-0.55;99.75
58295;BME280;45705;55.592;37.460;2023-02-02T14:01:57;98182.28;;;-0.54;100.00
58295;BME280;45705;55.592;37.460;2023-02-02T14:04:26;98188.38;;;-0.64;100.00
58295;BME280;45705;55.592;37.460;2023-02-02T14:06:59;98189.22;;;-0.53;100.00
58295;BME280;45705;55.592;37.460;2023-02-02T14:09:33;98177.59;;;-0.26;99.75
58295;BME280;45705;55.592;37.460;2023-02-02T14:12:06;98191.81;;;-0.68;100.00
58295;BME280;45705;55.592;37.460;2023-02-02T14:14:35;98192.34;;;-0.71;100.00
58295;BME280;45705;55.592;37.460;2023-02-02T14:19:57;98190.75;;;-0.62;100.00
58295;BME280;45705;55.592;37.460;2023-02-02T14:22:45;98209.16;;;-0.71;100.00
58295;BME280;45705;55.592;37.460;2023-02-02T14:27:57;98206.28;;;-0.59;100.00
58295;BME280;45705;55.592;37.460;2023-02-02T14:30:36;98210.47;;;-0.73;100.00
58295;BME280;45705;55.592;37.460;2023-02-02T14:38:38;98206.28;;;-0.59;100.00
58295;BME280;45705;55.592;37.460;2023-02-02T14:41:30;98202.56;;;-0.58;100.00
58295;BME280;45705;55.592;37.460;2023-02-02T14:44:18;98203.66;;;-0.54;100.00
58295;BME280;45705;55.592;37.460;2023-02-02T14:46:44;98218.53;;;-0.63;100.00